Date,TemperatureHighF,TemperatureAvgF,TemperatureLowF,DewpointHighF,DewpointAvgF,DewpointLowF,HumidityHigh,HumidityAvg,HumidityLow,PressureMaxIn,PressureMinIn,WindSpeedMaxMPH,WindSpeedAvgMPH,GustSpeedMaxMPH,PrecipitationSumIn
2013-1-1,40.0,31.8,22.0,-99.9,-99.9,-99.9,0,0,100,0.00,40.00,0,0,0,0.00
2013-1-2,52.0,37.2,29.0,-99.9,-99.9,-99.9,0,0,100,0.00,40.00,0,0,0,0.00
2013-1-3,49.0,37.0,23.0,-99.9,-99.9,-99.9,0,0,100,0.00,40.00,0,0,0,0.00
2013-1-4,51.0,38.4,25.0,-99.9,-99.9,-99.9,0,0,100,0.00,40.00,0,0,0,0.00
2013-1-5,50.0,39.3,25.0,-99.9,-99.9,-99.9,0,0,100,0.00,40.00,0,0,0,0.00
2013-1-6,43.0,37.6,32.0,-99.9,-99.9,-99.9,0,0,100,0.00,40.00,0,0,0,0.00
2013-1-7,44.0,34.4,27.0,-99.9,-99.9,-99.9,0,0,100,0.00,40.00,0,0,0,0.00
2013-1-8,62.0,46.7,27.0,-99.9,-99.9,-99.9,0,0,100,0.00,40.00,0,0,0,0.00
2013-1-9,63.0,51.0,35.0,-99.9,-99.9,-99.9,0,0,100,0.00,40.00,0,-87,0,0.00
2013-1-10,42.0,31.3,28.0,-99.9,-99.9,-99.9,0,0,100,0.00,40.00,0,0,0,0.00
2013-1-11,36.0,28.6,25.0,-99.9,-99.9,-99.9,0,0,100,0.00,40.00,0,0,0,0.00
2013-1-12,40.0,27.2,16.0,-99.9,-99.9,-99.9,0,0,100,0.00,40.00,0,0,0,0.00
2013-1-13,41.0,25.6,14.0,-99.9,-99.9,-99.9,0,0,100,0.00,40.00,0,0,0,0.00
2013-1-14,33.0,24.2,14.0,-99.9,-99.9,-99.9,0,0,100,0.00,40.00,0,0,0,0.00
2013-1-15,45.0,33.5,21.0,-99.9,-99.9,-99.9,0,0,100,0.00,40.00,0,0,0,0.00
2013-1-16,52.0,41.0,25.0,-99.9,-99.9,-99.9,0,0,100,0.00,40.00,0,0,0,0.00
2013-1-17,55.0,45.2,28.0,-99.9,-99.9,-99.9,0,0,100,0.00,40.00,0,0,0,0.00
2013-1-18,58.0,47.9,27.0,-99.9,-99.9,-99.9,0,0,100,0.00,40.00,0,0,0,0.00
2013-1-19,58.0,44.3,32.0,-99.9,-99.9,-99.9,0,0,100,0.00,40.00,0,0,0,0.00
2013-1-20,60.0,43.7,24.0,-99.9,-99.9,-99.9,0,0,100,0.00,40.00,0,0,0,0.00
2013-1-21,59.0,45.3,25.0,-99.9,-99.9,-99.9,0,0,100,0.00,40.00,0,0,0,0.00
2013-1-22,62.0,49.3,25.0,-99.9,-99.9,-99.9,0,0,100,0.00,40.00,0,0,0,0.00
2013-1-23,58.0,51.5,40.0,-99.9,-99.9,-99.9,0,0,100,0.00,40.00,0,0,0,0.00
2013-1-24,51.0,47.9,45.0,-99.9,-99.9,-99.9,0,0,100,0.00,40.00,0,0,0,0.00
2013-1-25,52.0,48.1,47.0,-99.9,-99.9,-99.9,0,0,100,0.00,40.00,0,0,0,0.00
2013-1-26,51.0,46.7,44.0,-99.9,-99.9,-99.9,0,0,100,0.00,40.00,0,0,0,0.00
2013-1-27,43.0,35.9,32.0,-99.9,-99.9,-99.9,0,0,100,0.00,40.00,0,0,0,0.00
2013-1-28,36.0,32.7,30.0,-99.9,-99.9,-99.9,0,0,100,0.00,40.00,0,0,0,0.00
2013-1-29,45.0,35.8,29.0,-99.9,-99.9,-99.9,0,0,100,0.00,40.00,0,0,0,0.00
2013-1-30,62.0,44.1,29.0,-99.9,-99.9,-99.9,0,0,100,0.00,40.00,0,0,0,0.00
2013-1-31,61.0,47.6,32.0,-99.9,-99.9,-99.9,0,0,100,0.00,40.00,0,0,0,0.00
2013-2-1,64.0,42.8,31.0,-99.9,-99.9,-99.9,0,0,100,0.00,40.00,0,0,0,0.00
2013-2-2,60.0,52.0,37.0,-99.9,-99.9,-99.9,0,0,100,0.00,40.00,0,0,0,0.00
2013-2-3,61.0,50.4,34.0,-99.9,-99.9,-99.9,0,0,100,0.00,40.00,0,0,0,0.00
2013-2-4,65.0,42.4,27.0,-99.9,-99.9,-99.9,0,0,100,0.00,40.00,0,0,0,0.00
2013-2-5,68.0,47.7,29.0,-99.9,-99.9,-99.9,0,0,100,0.00,40.00,0,0,0,0.00
2013-2-6,51.0,41.7,26.0,-99.9,-99.9,-99.9,0,0,100,0.00,40.00,0,0,0,0.00
2013-2-7,62.0,36.9,21.0,-99.9,-99.9,-99.9,0,0,100,0.00,40.00,0,0,0,0.00
2013-2-8,39.0,33.9,31.0,-99.9,-99.9,-99.9,0,0,100,0.00,40.00,0,0,0,0.00
2013-2-9,43.0,34.8,29.0,-99.9,-99.9,-99.9,0,0,100,0.00,40.00,0,0,0,0.00
2013-2-10,50.0,33.1,20.0,-99.9,-99.9,-99.9,0,0,100,0.00,40.00,0,0,0,0.00
2013-2-11,47.0,30.8,23.0,-99.9,-99.9,-99.9,0,0,100,0.00,40.00,0,0,0,0.00
2013-2-12,58.0,36.6,20.0,-99.9,-99.9,-99.9,0,0,100,0.00,40.00,0,0,0,0.00
2013-2-13,62.0,36.7,23.0,-99.9,-99.9,-99.9,0,0,100,0.00,40.00,0,0,0,0.00
2013-2-14,61.0,40.5,26.0,-99.9,-99.9,-99.9,0,0,100,0.00,40.00,0,0,0,0.00
2013-2-15,62.0,47.8,31.0,-99.9,-99.9,-99.9,0,0,100,0.00,40.00,0,0,0,0.00
2013-2-16,62.0,48.5,27.0,-99.9,-99.9,-99.9,0,0,100,0.00,40.00,0,0,0,0.00
2013-2-17,60.0,45.2,26.0,-99.9,-99.9,-99.9,0,0,100,0.00,40.00,0,0,0,0.00
2013-2-18,62.0,40.8,25.0,-99.9,-99.9,-99.9,0,0,100,0.00,40.00,0,0,0,0.00
2013-2-19,41.0,36.8,28.0,-99.9,-99.9,-99.9,0,0,100,0.00,40.00,0,0,0,0.00
2013-2-20,32.0,29.9,27.0,-99.9,-99.9,-99.9,0,0,100,0.00,40.00,0,-25,0,0.00
2013-2-21,43.0,35.2,29.0,-99.9,-99.9,-99.9,0,0,100,0.00,40.00,0,0,0,0.00
2013-2-22,53.0,37.5,22.0,-99.9,-99.9,-99.9,0,0,100,0.00,40.00,0,0,0,0.00
2013-2-23,49.0,38.9,33.0,-99.9,-99.9,-99.9,0,0,100,0.00,40.00,0,0,0,0.00
2013-2-24,49.0,38.6,29.0,-99.9,-99.9,-99.9,0,0,100,0.00,40.00,0,-71,0,0.00
2013-2-25,59.0,40.2,22.0,-99.9,-99.9,-99.9,0,0,100,0.00,40.00,0,0,0,0.00
2013-2-26,56.0,44.9,29.0,-99.9,-99.9,-99.9,0,0,100,0.00,40.00,0,0,0,0.00
2013-2-27,55.0,37.6,26.0,-99.9,-99.9,-99.9,0,0,100,0.00,40.00,0,0,0,0.00
2013-2-28,63.0,40.1,24.0,-99.9,-99.9,-99.9,0,0,100,0.00,40.00,0,0,0,0.00
2013-3-1,67.0,51.8,28.0,-99.9,-99.9,-99.9,0,0,100,0.00,40.00,0,0,0,0.00
2013-3-2,69.0,53.5,32.0,-99.9,-99.9,-99.9,0,0,100,0.00,40.00,0,0,0,0.00
2013-3-3,63.0,51.7,43.0,-99.9,-99.9,-99.9,0,0,100,0.00,40.00,0,0,0,0.00
2013-3-4,62.0,47.4,40.0,-99.9,-99.9,-99.9,0,0,100,0.00,40.00,0,-94,0,0.00
2013-3-5,64.0,53.1,36.0,-99.9,-99.9,-99.9,0,0,100,0.00,40.00,0,0,0,0.00
2013-3-6,49.0,42.0,36.0,-99.9,-99.9,-99.9,0,0,100,0.00,40.00,0,0,0,0.00
2013-3-7,51.0,42.3,35.0,-99.9,-99.9,-99.9,0,0,100,0.00,40.00,0,0,0,0.00
2013-3-8,40.0,35.1,33.0,-99.9,-99.9,-99.9,0,0,100,0.00,40.00,0,0,0,0.00
2013-3-9,41.0,35.4,31.0,-99.9,-99.9,-99.9,0,0,100,0.00,40.00,0,0,0,0.00
2013-3-10,65.0,45.3,23.0,-99.9,-99.9,-99.9,0,0,100,0.00,40.00,0,0,0,0.00
2013-3-11,69.0,51.9,28.0,-99.9,-99.9,-99.9,0,0,100,0.00,40.00,0,0,0,0.00
2013-3-12,71.0,54.9,32.0,-99.9,-99.9,-99.9,0,0,100,0.00,40.00,0,0,0,0.00
2013-3-13,76.0,61.1,35.0,-99.9,-99.9,-99.9,0,0,100,0.00,40.00,0,0,0,0.00
2013-3-14,78.0,62.4,36.0,-99.9,-99.9,-99.9,0,0,100,0.00,40.00,0,0,0,0.00
2013-3-15,77.0,59.1,41.0,-99.9,-99.9,-99.9,0,0,100,0.00,40.00,0,0,0,0.00
2013-3-16,68.0,55.8,48.0,-99.9,-99.9,-99.9,0,0,100,0.00,40.00,0,0,0,0.00
2013-3-17,67.0,54.5,46.0,-99.9,-99.9,-99.9,0,0,100,0.00,40.00,0,0,0,0.00
2013-3-18,67.0,51.3,43.0,-99.9,-99.9,-99.9,0,0,100,0.00,40.00,0,-67,0,0.00
2013-3-19,69.0,56.9,43.0,-99.9,-99.9,-99.9,0,0,100,0.00,40.00,0,0,0,0.00
2013-3-20,65.0,52.7,44.0,-99.9,-99.9,-99.9,0,0,100,0.00,40.00,0,0,0,0.00
2013-3-21,61.0,51.0,45.0,-99.9,-99.9,-99.9,0,0,100,0.00,40.00,0,0,0,0.00
2013-3-22,58.0,48.7,40.0,-99.9,-99.9,-99.9,0,0,100,0.00,40.00,0,0,0,0.00
2013-3-23,65.0,49.2,31.0,-99.9,-99.9,-99.9,0,0,100,0.00,40.00,0,0,0,0.00
2013-3-24,72.0,51.5,32.0,-99.9,-99.9,-99.9,0,0,100,0.00,40.00,0,0,0,0.00
2013-3-25,69.0,53.9,36.0,-99.9,-99.9,-99.9,0,0,100,0.00,40.00,0,0,0,0.00
2013-3-26,71.0,55.2,45.0,-99.9,-99.9,-99.9,0,0,100,0.00,40.00,0,0,0,0.00
2013-3-27,68.0,54.6,47.0,-99.9,-99.9,-99.9,0,0,100,0.00,40.00,0,0,0,0.00
2013-3-28,69.0,57.0,47.0,-99.9,-99.9,-99.9,0,0,100,0.00,40.00,0,0,0,0.00
2013-3-29,73.0,55.1,34.0,-99.9,-99.9,-99.9,0,0,100,0.00,40.00,0,0,0,0.00
2013-3-30,78.0,60.1,40.0,-99.9,-99.9,-99.9,0,0,100,0.00,40.00,0,0,0,0.00
2013-3-31,63.0,53.0,43.0,-99.9,-99.9,-99.9,0,0,100,0.00,40.00,0,0,0,0.00
2013-4-1,60.0,49.5,42.0,-99.9,-99.9,-99.9,0,0,100,0.00,40.00,0,0,0,0.00
2013-4-2,65.0,54.4,45.0,-99.9,-99.9,-99.9,0,0,100,0.00,40.00,0,0,0,0.00
2013-4-3,75.0,58.8,36.0,-99.9,-99.9,-99.9,0,0,100,0.00,40.00,0,0,0,0.00
2013-4-4,69.0,55.5,43.0,-99.9,-99.9,-99.9,0,0,100,0.00,40.00,0,0,0,0.00
2013-4-5,63.0,53.6,47.0,-99.9,-99.9,-99.9,0,0,100,0.00,40.00,0,0,0,0.00
2013-4-6,59.0,50.5,44.0,-99.9,-99.9,-99.9,0,0,100,0.00,40.00,0,-65,0,0.00
2013-4-7,62.0,51.2,44.0,-99.9,-99.9,-99.9,0,0,100,0.00,40.00,0,0,0,0.00
2013-4-8,51.0,41.3,34.0,-99.9,-99.9,-99.9,0,0,100,0.00,40.00,0,0,0,0.00
2013-4-9,61.0,46.4,35.0,-99.9,-99.9,-99.9,0,0,100,0.00,40.00,0,0,0,0.00
2013-4-10,72.0,52.0,28.0,-99.9,-99.9,-99.9,0,0,100,0.00,40.00,0,0,0,0.00
2013-4-11,72.0,59.9,48.0,-99.9,-99.9,-99.9,0,0,100,0.00,40.00,0,0,0,0.00
2013-4-12,79.0,56.6,39.0,-99.9,-99.9,-99.9,0,0,100,0.00,40.00,0,0,0,0.00
2013-4-13,73.0,61.3,47.0,-99.9,-99.9,-99.9,0,0,100,0.00,40.00,0,0,0,0.00
2013-4-14,65.0,55.9,46.0,-99.9,-99.9,-99.9,0,0,100,0.00,40.00,0,0,0,0.00
2013-4-15,57.0,46.6,41.0,-99.9,-99.9,-99.9,0,0,100,0.00,40.00,0,0,0,0.00
2013-4-16,51.0,42.3,31.0,-99.9,-99.9,-99.9,0,0,100,0.00,40.00,0,0,0,0.00
2013-4-17,58.0,43.6,30.0,-99.9,-99.9,-99.9,0,0,100,0.00,40.00,0,0,0,0.00
2013-4-18,65.0,49.1,26.0,-99.9,-99.9,-99.9,0,0,100,0.00,40.00,0,0,0,0.00
2013-4-19,74.0,50.8,29.0,-99.9,-99.9,-99.9,0,0,100,0.00,40.00,0,0,0,0.00
2013-4-20,77.0,61.9,50.0,-99.9,-99.9,-99.9,0,0,100,0.00,40.00,0,0,0,0.00
2013-4-21,81.0,62.5,42.0,-99.9,-99.9,-99.9,0,0,100,0.00,40.00,0,0,0,0.00
2013-4-22,78.0,62.6,54.0,-99.9,-99.9,-99.9,0,0,100,0.00,40.00,0,0,0,0.00
2013-4-23,73.0,59.9,45.0,-99.9,-99.9,-99.9,0,0,100,0.00,40.00,0,0,0,0.00
2013-4-24,76.0,61.7,37.0,-99.9,-99.9,-99.9,0,0,100,0.00,40.00,0,-70,0,0.00
2013-4-25,71.0,58.9,48.0,-99.9,-99.9,-99.9,0,0,100,0.00,40.00,0,0,0,0.00
2013-4-26,80.0,62.3,48.0,-99.9,-99.9,-99.9,0,0,100,0.00,40.00,0,0,0,0.00
2013-4-27,85.0,68.0,43.0,-99.9,-99.9,-99.9,0,0,100,0.00,40.00,0,0,0,0.00
2013-4-28,85.0,68.3,51.0,-99.9,-99.9,-99.9,0,0,100,0.00,40.00,0,0,0,0.00
2013-4-29,81.0,68.7,48.0,-99.9,-99.9,-99.9,0,0,100,0.00,40.00,0,0,0,0.00
2013-4-30,80.0,68.2,59.0,-99.9,-99.9,-99.9,0,0,100,0.00,40.00,0,0,0,0.00
2013-5-1,76.0,64.5,43.0,-99.9,-99.9,-99.9,0,0,100,0.00,40.00,0,-54,0,0.00
2013-5-2,73.0,61.4,47.0,-99.9,-99.9,-99.9,0,0,100,0.00,40.00,0,0,0,0.00
2013-5-3,81.0,67.0,34.0,-99.9,-99.9,-99.9,0,0,100,0.00,40.00,0,0,0,0.00
2013-5-4,83.0,68.9,55.0,-99.9,-99.9,-99.9,0,0,100,0.00,40.00,0,0,0,0.00
2013-5-5,59.0,52.2,47.0,-99.9,-99.9,-99.9,0,0,100,0.00,40.00,0,0,0,0.00
2013-5-6,61.0,51.4,44.0,-99.9,-99.9,-99.9,0,0,100,0.00,40.00,0,0,0,0.00
2013-5-7,55.0,48.0,45.0,-99.9,-99.9,-99.9,0,0,100,0.00,40.00,0,0,0,0.00
2013-5-8,66.0,55.9,47.0,-99.9,-99.9,-99.9,0,0,100,0.00,40.00,0,-43,0,0.00
2013-5-9,65.0,55.9,50.0,-99.9,-99.9,-99.9,0,0,100,0.00,40.00,0,0,0,0.00
2013-5-10,78.0,63.0,53.0,-99.9,-99.9,-99.9,0,0,100,0.00,40.00,0,0,0,0.00
2013-5-11,83.0,62.9,47.0,-99.9,-99.9,-99.9,0,0,100,0.00,40.00,0,0,0,0.00
2013-5-12,94.0,73.3,53.0,-99.9,-99.9,-99.9,0,0,100,0.00,40.00,0,0,0,0.00
2013-5-13,90.0,74.5,52.0,-99.9,-99.9,-99.9,0,0,100,0.00,40.00,0,0,0,0.00
2013-5-14,81.0,69.2,54.0,-99.9,-99.9,-99.9,0,0,100,0.00,40.00,0,0,0,0.00
2013-5-15,80.0,67.8,58.0,-99.9,-99.9,-99.9,0,0,100,0.00,40.00,0,0,0,0.00
2013-5-16,67.0,54.4,51.0,-99.9,-99.9,-99.9,0,0,100,0.00,40.00,0,0,0,0.00
2013-5-17,67.0,54.6,51.0,-99.9,-99.9,-99.9,0,0,100,0.00,40.00,0,0,0,0.00
2013-5-18,69.0,58.0,48.0,-99.9,-99.9,-99.9,0,0,100,0.00,40.00,0,0,0,0.00
2013-5-19,76.0,61.8,50.0,-99.9,-99.9,-99.9,0,0,100,0.00,40.00,0,0,0,0.00
2013-5-20,80.0,63.7,43.0,-99.9,-99.9,-99.9,0,0,100,0.00,40.00,0,0,0,0.00
2013-5-21,85.0,70.1,47.0,-99.9,-99.9,-99.9,0,0,100,0.00,40.00,0,0,0,0.00
2013-5-22,65.0,55.9,44.0,-99.9,-99.9,-99.9,0,0,100,0.00,40.00,0,0,0,0.00
2013-5-23,66.0,54.1,43.0,-99.9,-99.9,-99.9,0,0,100,0.00,40.00,0,0,0,0.00
2013-5-24,73.0,55.6,46.0,-99.9,-99.9,-99.9,0,0,100,0.00,40.00,0,0,0,0.00
2013-5-25,75.0,61.5,48.0,-99.9,-99.9,-99.9,0,0,100,0.00,40.00,0,0,0,0.00
2013-5-26,71.0,58.5,47.0,-99.9,-99.9,-99.9,0,0,100,0.00,40.00,0,0,0,0.00
2013-5-27,68.0,57.2,50.0,-99.9,-99.9,-99.9,0,0,100,0.00,40.00,0,0,0,0.00
2013-5-28,62.0,53.5,48.0,-99.9,-99.9,-99.9,0,0,100,0.00,40.00,0,0,0,0.00
2013-5-29,73.0,61.4,50.0,-99.9,-99.9,-99.9,0,0,100,0.00,40.00,0,0,0,0.00
2013-5-30,79.0,64.5,49.0,-99.9,-99.9,-99.9,0,0,100,0.00,40.00,29,-63,35,0.00
2013-5-31,82.0,70.4,54.0,-99.9,-99.9,-99.9,0,0,100,0.00,40.00,20,-72,24,0.00
2013-6-1,89.0,68.4,47.0,-99.9,-99.9,-99.9,0,0,100,0.00,40.00,15,6,21,0.00
2013-6-2,94.0,73.4,54.0,-99.9,-99.9,-99.9,0,0,100,0.00,40.00,17,7,22,0.00
2013-6-3,89.0,74.3,58.0,-99.9,-99.9,-99.9,0,0,100,0.00,40.00,16,10,21,0.00
2013-6-4,87.0,71.7,55.0,-99.9,-99.9,-99.9,0,0,100,0.00,40.00,20,11,24,0.00
2013-6-5,94.0,76.3,58.0,-99.9,-99.9,-99.9,0,0,100,0.00,40.00,23,12,26,0.00
2013-6-6,94.0,76.6,57.0,-99.9,-99.9,-99.9,0,0,100,0.00,40.00,22,12,25,0.00
2013-6-7,98.0,78.4,58.0,-99.9,-99.9,-99.9,0,0,100,0.00,40.00,21,11,26,0.00
2013-6-8,102.0,84.0,59.0,-99.9,-99.9,-99.9,0,0,100,0.00,40.00,22,9,22,0.00
2013-6-9,94.0,81.2,65.0,-99.9,-99.9,-99.9,0,0,100,0.00,40.00,16,7,19,0.00
2013-6-10,78.0,66.3,54.0,-99.9,-99.9,-99.9,0,0,100,0.00,40.00,23,12,27,0.00
2013-6-11,93.0,77.6,58.0,-99.9,-99.9,-99.9,0,0,100,0.00,40.00,19,13,26,0.00
2013-6-12,90.0,73.0,55.0,-99.9,-99.9,-99.9,0,0,100,0.00,40.00,28,12,28,0.00
2013-6-13,80.0,68.1,58.0,-99.9,-99.9,-99.9,0,0,100,0.00,40.00,27,17,32,0.00
2013-6-14,86.0,69.7,54.0,-99.9,-99.9,-99.9,0,0,100,0.00,40.00,23,-38,25,0.00
2013-6-15,87.0,70.0,54.0,-99.9,-99.9,-99.9,0,0,100,0.00,40.00,23,12,25,0.00
2013-6-16,83.0,71.0,60.0,-99.9,-99.9,-99.9,0,0,100,0.00,40.00,27,17,28,0.00
2013-6-17,80.0,69.6,58.0,-99.9,-99.9,-99.9,0,0,100,0.00,40.00,23,16,29,0.00
2013-6-18,80.0,67.1,54.0,-99.9,-99.9,-99.9,0,0,100,0.00,40.00,31,-21,31,0.00
2013-6-19,70.0,59.8,46.0,-99.9,-99.9,-99.9,0,0,100,0.00,40.00,31,-21,31,0.00
2013-6-20,76.0,58.6,51.0,-99.9,-99.9,-99.9,0,0,100,0.00,40.00,26,15,28,0.00
2013-6-22,84.0,75.5,63.0,-99.9,-99.9,-99.9,0,0,100,0.00,40.00,21,16,27,0.00
2013-6-23,81.0,68.0,61.0,-99.9,-99.9,-99.9,0,0,100,0.00,40.00,26,18,30,0.00
2013-6-24,73.0,65.0,56.0,-99.9,-99.9,-99.9,0,0,100,0.00,40.00,29,21,30,0.00
2013-6-25,84.0,71.9,56.0,-99.9,-99.9,-99.9,0,0,100,0.00,40.00,21,16,28,0.00
2013-6-26,90.0,74.9,61.0,-99.9,-99.9,-99.9,0,0,100,0.00,40.00,21,12,25,0.00
2013-6-27,94.0,75.1,65.0,-99.9,-99.9,-99.9,0,0,100,0.00,40.00,23,12,26,0.00
2013-6-28,94.0,80.9,63.0,-99.9,-99.9,-99.9,0,0,100,0.00,40.00,28,14,28,0.00
2013-6-29,100.0,81.3,69.0,-99.9,-99.9,-99.9,0,0,100,0.00,40.00,17,12,23,0.00
2013-6-30,102.0,82.1,69.0,-99.9,-99.9,-99.9,0,0,100,0.00,40.00,23,9,25,0.00
2013-7-1,100.0,88.4,76.0,-99.9,-99.9,-99.9,0,0,100,0.00,40.00,18,11,20,0.00
2013-7-2,98.0,84.6,66.0,-99.9,-99.9,-99.9,0,0,100,0.00,40.00,24,11,29,0.00
2013-7-3,97.0,84.2,72.0,-99.9,-99.9,-99.9,0,0,100,0.00,40.00,21,13,25,0.00
2013-7-4,101.0,88.5,67.0,-99.9,-99.9,-99.9,0,0,100,0.00,40.00,19,13,26,0.00
2013-7-5,98.0,86.7,73.0,-99.9,-99.9,-99.9,0,0,100,0.00,40.00,20,13,27,0.00
2013-7-6,99.0,79.9,66.0,-99.9,-99.9,-99.9,0,0,100,0.00,40.00,20,8,24,0.00
2013-7-7,97.0,81.9,64.0,-99.9,-99.9,-99.9,0,0,100,0.00,40.00,20,12,26,0.00
2013-7-8,98.0,81.5,59.0,-99.9,-99.9,-99.9,0,0,100,0.00,40.00,20,10,23,0.00
2013-7-9,100.0,82.2,62.0,-99.9,-99.9,-99.9,0,0,100,0.00,40.00,17,10,24,0.00
2013-7-10,93.0,81.3,71.0,-99.9,-99.9,-99.9,0,0,100,0.00,40.00,17,10,21,0.00
2013-7-11,87.0,77.2,69.0,-99.9,-99.9,-99.9,0,0,100,0.00,40.00,14,7,21,0.00
2013-7-12,91.0,72.6,61.0,-99.9,-99.9,-99.9,0,0,100,0.00,40.00,18,7,25,0.00
2013-7-13,92.0,76.3,65.0,-99.9,-99.9,-99.9,0,0,100,0.00,40.00,23,13,25,0.00
2013-7-14,92.0,77.5,66.0,-99.9,-99.9,-99.9,0,0,100,0.00,40.00,20,11,27,0.00
2013-7-15,93.0,75.6,65.0,-99.9,-99.9,-99.9,0,0,100,0.00,40.00,17,12,19,0.00
2013-7-16,91.0,78.0,62.0,-99.9,-99.9,-99.9,0,0,100,0.00,40.00,20,12,25,0.00
2013-7-17,91.0,76.9,58.0,-99.9,-99.9,-99.9,0,0,100,0.00,40.00,24,13,24,0.00
2013-7-18,93.0,78.0,56.0,-99.9,-99.9,-99.9,0,0,100,0.00,40.00,21,11,26,0.00
2013-7-19,96.0,76.2,60.0,-99.9,-99.9,-99.9,0,0,100,0.00,40.00,25,11,25,0.00
2013-7-20,99.0,82.0,62.0,-99.9,-99.9,-99.9,0,0,100,0.00,40.00,16,7,25,0.00
2013-7-21,91.0,80.3,65.0,-99.9,-99.9,-99.9,0,0,100,0.00,40.00,15,6,17,0.00
2013-7-22,88.0,81.2,69.0,-99.9,-99.9,-99.9,0,0,100,0.00,40.00,14,-53,16,0.00
2013-7-23,92.0,76.3,65.0,-99.9,-99.9,-99.9,0,0,100,0.00,40.00,22,12,25,0.00
2013-7-24,92.0,79.5,67.0,-99.9,-99.9,-99.9,0,0,100,0.00,40.00,25,14,27,0.00
2013-7-25,92.0,77.7,68.0,-99.9,-99.9,-99.9,0,0,100,0.00,40.00,19,12,25,0.00
2013-7-26,87.0,77.4,69.0,-99.9,-99.9,-99.9,0,0,100,0.00,40.00,16,10,17,0.00
2013-7-27,91.0,79.6,71.0,-99.9,-99.9,-99.9,0,0,100,0.00,40.00,20,9,25,0.00
2013-7-28,93.0,80.3,64.0,-99.9,-99.9,-99.9,0,0,100,0.00,40.00,23,12,23,0.00
2013-7-29,94.0,77.7,59.0,-99.9,-99.9,-99.9,0,0,100,0.00,40.00,13,8,19,0.00
2013-7-30,93.0,76.3,62.0,-99.9,-99.9,-99.9,0,0,100,0.00,40.00,16,8,21,0.00
2013-7-31,91.0,74.5,54.0,-99.9,-99.9,-99.9,0,0,100,0.00,40.00,16,8,22,0.00
2013-8-1,85.0,75.7,62.0,-99.9,-99.9,-99.9,0,0,100,0.00,40.00,27,18,32,0.00
2013-8-2,84.0,72.4,58.0,-99.9,-99.9,-99.9,0,0,100,0.00,40.00,22,14,24,0.00
2013-8-3,91.0,74.3,57.0,-99.9,-99.9,-99.9,0,0,100,0.00,40.00,19,-72,21,0.00
2013-8-4,90.0,77.2,59.0,-99.9,-99.9,-99.9,0,0,100,0.00,40.00,18,11,22,0.00
2013-8-5,87.0,73.2,64.0,-99.9,-99.9,-99.9,0,0,100,0.00,40.00,16,11,22,0.00
2013-8-6,92.0,75.9,61.0,-99.9,-99.9,-99.9,0,0,100,0.00,40.00,25,13,28,0.00
2013-8-7,84.0,68.1,59.0,-99.9,-99.9,-99.9,0,0,100,0.00,40.00,19,12,26,0.00
2013-8-8,84.0,68.4,58.0,-99.9,-99.9,-99.9,0,0,100,0.00,40.00,20,13,28,0.00
2013-8-9,84.0,70.8,56.0,-99.9,-99.9,-99.9,0,0,100,0.00,40.00,16,-19,21,0.00
2013-8-10,83.0,68.8,58.0,-99.9,-99.9,-99.9,0,0,100,0.00,40.00,23,13,25,0.00
2013-8-11,84.0,70.7,58.0,-99.9,-99.9,-99.9,0,0,100,0.00,40.00,23,13,23,0.00
2013-8-12,87.0,68.8,54.0,-99.9,-99.9,-99.9,0,0,100,0.00,40.00,21,10,24,0.00
2013-8-13,91.0,73.8,58.0,-99.9,-99.9,-99.9,0,0,100,0.00,40.00,15,10,23,0.00
2013-8-14,93.0,74.5,61.0,-99.9,-99.9,-99.9,0,0,100,0.00,40.00,22,10,24,0.00
2013-8-15,93.0,70.0,58.0,-99.9,-99.9,-99.9,0,0,100,0.00,40.00,18,9,20,0.00
2013-8-16,94.0,76.7,61.0,-99.9,-99.9,-99.9,0,0,100,0.00,40.00,19,12,22,0.00
2013-8-17,94.0,80.1,61.0,-99.9,-99.9,-99.9,0,0,100,0.00,40.00,22,12,24,0.00
2013-8-18,96.0,82.4,65.0,-99.9,-99.9,-99.9,0,0,100,0.00,40.00,15,8,19,0.00
2013-8-19,91.0,77.2,69.0,-99.9,-99.9,-99.9,0,0,100,0.00,40.00,17,7,21,0.00
2013-8-20,94.0,77.6,59.0,-99.9,-99.9,-99.9,0,0,100,0.00,40.00,19,8,19,0.00
2013-8-21,94.0,79.3,66.0,-99.9,-99.9,-99.9,0,0,100,0.00,40.00,20,6,25,0.00
2013-8-22,94.0,83.9,68.0,-99.9,-99.9,-99.9,0,0,100,0.00,40.00,23,10,25,0.00
2013-8-23,84.0,73.1,53.0,-99.9,-99.9,-99.9,0,0,100,0.00,40.00,21,8,23,0.00
2013-8-24,90.0,71.2,56.0,-99.9,-99.9,-99.9,0,0,100,0.00,40.00,17,8,21,0.00
2013-8-25,90.0,72.3,51.0,-99.9,-99.9,-99.9,0,0,100,0.00,40.00,21,7,22,0.00
2013-8-26,83.0,68.8,54.0,-99.9,-99.9,-99.9,0,0,100,0.00,40.00,10,4,14,0.00
2013-8-27,78.0,67.8,59.0,-99.9,-99.9,-99.9,0,0,100,0.00,40.00,10,3,16,0.00
2013-8-28,92.0,83.6,65.0,-99.9,-99.9,-99.9,0,0,100,0.00,40.00,21,8,23,0.00
2013-8-29,94.0,74.3,59.0,-99.9,-99.9,-99.9,0,0,100,0.00,40.00,19,10,22,0.00
2013-8-30,91.0,78.6,65.0,-99.9,-99.9,-99.9,0,0,100,0.00,40.00,21,9,21,0.00
2013-8-31,92.0,78.6,69.0,-99.9,-99.9,-99.9,0,0,100,0.00,40.00,18,11,25,0.00
2013-9-1,89.0,76.3,68.0,-99.9,-99.9,-99.9,0,0,100,0.00,40.00,19,10,22,0.00
2013-9-2,91.0,76.7,66.0,-99.9,-99.9,-99.9,0,0,100,0.00,40.00,17,6,19,0.00
2013-9-3,91.0,74.1,63.0,-99.9,-99.9,-99.9,0,0,100,0.00,40.00,17,9,22,0.00
2013-9-4,94.0,71.3,58.0,-99.9,-99.9,-99.9,0,0,100,0.00,40.00,20,6,23,0.00
2013-9-5,94.0,74.2,57.0,-99.9,-99.9,-99.9,0,0,100,0.00,40.00,21,10,25,0.00
2013-9-6,90.0,68.8,54.0,-99.9,-99.9,-99.9,0,0,100,0.00,40.00,19,6,23,0.00
2013-9-7,95.0,78.5,55.0,-99.9,-99.9,-99.9,0,0,100,0.00,40.00,21,10,28,0.00
2013-9-8,92.0,74.0,61.0,-99.9,-99.9,-99.9,0,0,100,0.00,40.00,14,8,24,0.00
2013-9-9,90.0,74.0,65.0,-99.9,-99.9,-99.9,0,0,100,0.00,40.00,19,9,21,0.00
2013-9-10,90.0,76.6,65.0,-99.9,-99.9,-99.9,0,0,100,0.00,40.00,20,10,25,0.00
2013-9-11,85.0,71.8,62.0,-99.9,-99.9,-99.9,0,0,100,0.00,40.00,17,12,23,0.00
2013-9-12,82.0,68.6,54.0,-99.9,-99.9,-99.9,0,0,100,0.00,40.00,21,10,23,0.00
2013-9-13,87.0,72.8,61.0,-99.9,-99.9,-99.9,0,0,100,0.00,40.00,17,9,26,0.00
2013-9-14,93.0,71.9,57.0,-99.9,-99.9,-99.9,0,0,100,0.00,40.00,21,-20,23,0.00
2013-9-15,94.0,74.0,55.0,-99.9,-99.9,-99.9,0,0,100,0.00,40.00,15,6,20,0.00
2013-9-16,91.0,71.4,55.0,-99.9,-99.9,-99.9,0,0,100,0.00,40.00,15,6,29,0.00
2013-9-17,81.0,66.7,48.0,-99.9,-99.9,-99.9,0,0,100,0.00,40.00,23,15,25,0.00
2013-9-18,62.0,56.5,53.0,-99.9,-99.9,-99.9,0,0,100,0.00,40.00,14,10,16,0.00
2013-9-19,86.0,71.2,43.0,-99.9,-99.9,-99.9,0,0,100,0.00,40.00,19,8,19,0.00
2013-9-20,87.0,71.4,49.0,-99.9,-99.9,-99.9,0,0,100,0.00,40.00,16,10,21,0.00
2013-9-21,72.0,60.6,51.0,-99.9,-99.9,-99.9,0,0,100,0.00,40.00,28,17,36,0.00
2013-9-22,65.0,56.7,47.0,-99.9,-99.9,-99.9,0,0,100,0.00,40.00,26,18,33,0.00
2013-9-23,80.0,63.2,47.0,-99.9,-99.9,-99.9,0,0,100,0.00,40.00,12,4,14,0.00
2013-9-24,82.0,60.5,44.0,-99.9,-99.9,-99.9,0,0,100,0.00,40.00,18,10,23,0.00
2013-9-25,63.0,56.0,47.0,-99.9,-99.9,-99.9,0,0,100,0.00,40.00,35,19,35,0.00
2013-9-26,62.0,52.5,43.0,-99.9,-99.9,-99.9,0,0,100,0.00,40.00,27,15,29,0.00
2013-9-27,69.0,56.6,40.0,-99.9,-99.9,-99.9,0,0,100,0.00,40.00,15,7,18,0.00
2013-9-28,75.0,55.8,36.0,-99.9,-99.9,-99.9,0,0,100,0.00,40.00,13,4,14,0.00
2013-9-29,81.0,67.0,41.0,-99.9,-99.9,-99.9,0,0,100,0.00,40.00,17,11,24,0.00
2013-9-30,74.0,62.7,54.0,-99.9,-99.9,-99.9,0,0,100,0.00,40.00,23,16,29,0.00
2013-10-1,71.0,60.4,58.0,-99.9,-99.9,-99.9,0,0,100,0.00,40.00,18,13,18,0.00
2013-10-2,72.0,60.9,51.0,-99.9,-99.9,-99.9,0,0,100,0.00,40.00,27,15,29,0.00
2013-10-3,65.0,54.9,43.0,-99.9,-99.9,-99.9,0,0,100,0.00,40.00,26,16,32,0.00
2013-10-4,65.0,55.5,39.0,-99.9,-99.9,-99.9,0,0,100,0.00,40.00,17,11,26,0.00
2013-10-5,71.0,60.2,41.0,-99.9,-99.9,-99.9,0,0,100,0.00,40.00,14,14,26,0.00
2013-10-6,75.0,63.9,50.0,-99.9,-99.9,-99.9,0,0,100,0.00,40.00,14,14,26,0.00
2013-10-7,80.0,58.1,43.0,-99.9,-99.9,-99.9,0,0,100,0.00,40.00,14,14,26,0.00
2013-10-8,72.0,60.4,49.0,-99.9,-99.9,-99.9,0,0,100,0.00,40.00,14,14,26,0.00
2013-10-9,56.0,47.5,40.0,-99.9,-99.9,-99.9,0,0,100,0.00,40.00,14,14,26,0.00
2013-10-10,62.0,47.9,39.0,-99.9,-99.9,-99.9,0,0,100,0.00,40.00,14,14,26,0.00
2013-10-11,69.0,52.3,38.0,-99.9,-99.9,-99.9,0,0,100,0.00,40.00,14,14,26,0.00
2013-10-12,71.0,51.0,36.0,-99.9,-99.9,-99.9,0,0,100,0.00,40.00,14,14,26,0.00
2013-10-13,64.0,54.3,40.0,-99.9,-99.9,-99.9,0,0,100,0.00,40.00,14,14,26,0.00
2013-10-14,65.0,51.9,33.0,-99.9,-99.9,-99.9,0,0,100,0.00,40.00,14,14,26,0.00
2013-10-15,68.0,52.6,39.0,-99.9,-99.9,-99.9,0,0,100,0.00,40.00,14,14,26,0.00
2013-10-16,67.0,53.5,39.0,-99.9,-99.9,-99.9,0,0,100,0.00,40.00,14,14,26,0.00
2013-10-17,73.0,55.0,40.0,-99.9,-99.9,-99.9,0,0,100,0.00,40.00,14,14,26,0.00
2013-10-18,73.0,55.0,38.0,-99.9,-99.9,-99.9,0,0,100,0.00,40.00,14,14,26,0.00
2013-10-19,79.0,55.6,36.0,-99.9,-99.9,-99.9,0,0,100,0.00,40.00,14,14,26,0.00
2013-10-20,74.0,60.8,45.0,-99.9,-99.9,-99.9,0,0,100,0.00,40.00,14,14,26,0.00
2013-10-21,76.0,64.7,36.0,-99.9,-99.9,-99.9,0,0,100,0.00,40.00,14,14,26,0.00
2013-10-22,75.0,58.0,42.0,-99.9,-99.9,-99.9,0,0,100,0.00,40.00,14,14,26,0.00
2013-10-23,75.0,63.7,45.0,-99.9,-99.9,-99.9,0,0,100,0.00,40.00,14,14,26,0.00
2013-10-24,76.0,59.3,41.0,-99.9,-99.9,-99.9,0,0,100,0.00,40.00,14,14,26,0.00
2013-10-25,76.0,58.0,40.0,-99.9,-99.9,-99.9,0,0,100,0.00,40.00,14,14,26,0.00
2013-10-26,77.0,63.9,42.0,-99.9,-99.9,-99.9,0,0,100,0.00,40.00,14,14,26,0.00
2013-10-27,76.0,58.5,40.0,-99.9,-99.9,-99.9,0,0,100,0.00,40.00,14,14,26,0.00
2013-10-28,54.0,45.6,42.0,-99.9,-99.9,-99.9,0,0,100,0.00,40.00,14,14,26,0.00
2013-10-29,50.0,43.5,40.0,-99.9,-99.9,-99.9,0,0,100,0.00,40.00,14,14,26,0.00
2013-10-30,62.0,43.7,33.0,-99.9,-99.9,-99.9,0,0,100,0.00,40.00,14,13,26,0.00
2013-10-31,64.0,49.7,29.0,-99.9,-99.9,-99.9,0,0,100,0.00,40.00,8,4,9,0.00
2013-11-1,68.0,53.9,34.0,-99.9,-99.9,-99.9,0,0,100,0.00,40.00,16,6,16,0.00
2013-11-2,72.0,58.0,37.0,-99.9,-99.9,-99.9,0,0,100,0.00,40.00,15,7,19,0.00
2013-11-3,60.0,50.6,43.0,-99.9,-99.9,-99.9,0,0,100,0.00,40.00,21,14,25,0.00
2013-11-4,55.0,44.1,31.0,-99.9,-99.9,-99.9,0,0,100,0.00,40.00,21,11,22,0.00
2013-11-5,54.0,44.4,27.0,-99.9,-99.9,-99.9,0,0,100,0.00,40.00,12,5,17,0.00
2013-11-6,64.0,50.0,33.0,-99.9,-99.9,-99.9,0,0,100,0.00,40.00,17,7,21,0.00
2013-11-7,66.0,51.3,40.0,-99.9,-99.9,-99.9,0,0,100,0.00,40.00,10,3,15,0.00
2013-11-8,72.0,58.0,43.0,-99.9,-99.9,-99.9,0,0,100,0.00,40.00,10,5,15,0.00
2013-11-9,70.0,49.3,35.0,-99.9,-99.9,-99.9,0,0,100,0.00,40.00,12,4,19,0.00
2013-11-10,68.0,51.1,39.0,-99.9,-99.9,-99.9,0,0,100,0.00,40.00,16,4,18,0.00
2013-11-11,70.0,49.3,34.0,-99.9,-99.9,-99.9,0,0,100,0.00,40.00,18,4,20,0.00
2013-11-12,74.0,57.7,43.0,-99.9,-99.9,-99.9,0,0,100,0.00,40.00,18,5,20,0.00
2013-11-13,70.0,55.3,36.0,-99.9,-99.9,-99.9,0,0,100,0.00,40.00,21,8,22,0.00
2013-11-14,76.0,51.8,36.0,-99.9,-99.9,-99.9,0,0,100,0.00,40.00,20,6,21,0.00
2013-11-15,55.0,49.4,43.0,-99.9,-99.9,-99.9,0,0,100,0.00,40.00,23,15,23,0.00
2013-11-16,56.0,46.1,37.0,-99.9,-99.9,-99.9,0,0,100,0.00,40.00,30,16,35,0.00
2013-11-17,60.0,47.7,34.0,-99.9,-99.9,-99.9,0,0,100,0.00,40.00,12,6,16,0.00
2013-11-18,62.0,50.1,35.0,-99.9,-99.9,-99.9,0,0,100,0.00,40.00,13,7,16,0.00
2013-11-19,54.0,47.1,40.0,-99.9,-99.9,-99.9,0,0,100,0.00,40.00,21,12,24,0.00
2013-11-20,61.0,50.2,42.0,-99.9,-99.9,-99.9,0,0,100,0.00,40.00,16,12,22,0.00
2013-11-21,57.0,47.0,40.0,-99.9,-99.9,-99.9,0,0,100,0.00,40.00,16,11,17,0.00
2013-11-22,43.0,40.9,40.0,-99.9,-99.9,-99.9,0,0,100,0.00,40.00,23,12,26,0.00
2013-11-23,45.0,40.4,37.0,-99.9,-99.9,-99.9,0,0,100,0.00,40.00,16,6,24,0.00
2013-11-24,51.0,41.9,32.0,-99.9,-99.9,-99.9,0,0,100,0.00,40.00,9,4,13,0.00
2013-11-25,61.0,39.6,30.0,-99.9,-99.9,-99.9,0,0,100,0.00,40.00,11,4,11,0.00
2013-11-26,59.0,50.2,34.0,-99.9,-99.9,-99.9,0,0,100,0.00,40.00,19,7,21,0.00
2013-11-27,56.0,51.4,47.0,-99.9,-99.9,-99.9,0,0,100,0.00,40.00,25,11,25,0.00
2013-11-28,54.0,49.7,45.0,-99.9,-99.9,-99.9,0,0,100,0.00,40.00,21,10,24,0.00
2013-11-29,54.0,49.7,40.0,-99.9,-99.9,-99.9,0,0,100,0.00,40.00,19,8,19,0.00
2013-11-30,61.0,46.6,37.0,-99.9,-99.9,-99.9,0,0,100,0.00,40.00,6,2,12,0.00
2013-12-1,65.0,41.9,30.0,-99.9,-99.9,-99.9,0,0,100,0.00,40.00,7,4,12,0.00
2013-12-2,67.0,52.1,31.0,-99.9,-99.9,-99.9,0,0,100,0.00,40.00,26,13,26,0.00
2013-12-3,54.0,44.2,33.0,-99.9,-99.9,-99.9,0,0,100,0.00,40.00,33,21,35,0.00
2013-12-4,43.0,29.1,19.0,-99.9,-99.9,-99.9,0,0,100,0.00,40.00,28,15,32,0.00
2013-12-5,40.0,26.4,17.0,-99.9,-99.9,-99.9,0,0,100,0.00,40.00,13,2,14,0.00
2013-12-6,43.0,25.4,12.0,-99.9,-99.9,-99.9,0,0,100,0.00,40.00,12,3,14,0.00
2013-12-7,36.0,30.1,25.0,-99.9,-99.9,-99.9,0,0,100,0.00,40.00,23,18,25,0.00
2013-12-8,31.0,23.1,17.0,-99.9,-99.9,-99.9,0,0,100,0.00,40.00,23,19,25,0.00
2013-12-9,32.0,27.5,18.0,-99.9,-99.9,-99.9,0,0,100,0.00,40.00,8,8,10,0.00
2013-12-10,44.0,32.7,22.0,-99.9,-99.9,-99.9,0,0,100,0.00,40.00,8,8,10,0.00
2013-12-11,49.0,39.5,25.0,-99.9,-99.9,-99.9,0,0,100,0.00,40.00,8,8,10,0.00
2013-12-12,54.0,41.2,29.0,-99.9,-99.9,-99.9,0,0,100,0.00,40.00,8,8,10,0.00
2013-12-13,56.0,43.1,29.0,-99.9,-99.9,-99.9,0,0,100,0.00,40.00,8,8,10,0.00
2013-12-14,53.0,43.0,36.0,-99.9,-99.9,-99.9,0,0,100,0.00,40.00,8,-496,10,0.00
2013-12-15,63.0,47.9,36.0,-99.9,-99.9,-99.9,0,0,100,0.00,40.00,0,-999,0,0.00
2013-12-16,65.0,50.7,41.0,-99.9,-99.9,-99.9,0,0,100,0.00,40.00,0,-999,0,0.00
2013-12-17,68.0,54.2,44.0,-99.9,-99.9,-99.9,0,0,100,0.00,40.00,0,-999,0,0.00
2013-12-18,62.0,53.1,38.0,-99.9,-99.9,-99.9,0,0,100,0.00,40.00,1,-975,1,0.00
2013-12-19,49.0,38.6,35.0,-99.9,-99.9,-99.9,0,0,100,0.00,40.00,2,2,3,0.00
2013-12-20,49.0,39.6,29.0,-99.9,-99.9,-99.9,0,0,100,0.00,40.00,2,2,3,0.00
2013-12-21,55.0,42.4,27.0,-99.9,-99.9,-99.9,0,0,100,0.00,40.00,2,2,3,0.00
2013-12-22,55.0,40.6,29.0,-99.9,-99.9,-99.9,0,0,100,0.00,40.00,2,2,3,0.00
2013-12-23,58.0,45.9,34.0,-99.9,-99.9,-99.9,0,0,100,0.00,40.00,2,2,3,0.00
2013-12-24,64.0,50.6,32.0,-99.9,-99.9,-99.9,0,0,100,0.00,40.00,2,2,3,0.00
2013-12-25,61.0,50.0,39.0,-99.9,-99.9,-99.9,0,0,100,0.00,40.00,2,2,3,0.00
2013-12-26,62.0,52.1,36.0,-99.9,-99.9,-99.9,0,0,100,0.00,40.00,6,6,9,0.00
2013-12-27,65.0,57.1,31.0,-99.9,-99.9,-99.9,0,0,100,0.00,40.00,4,2,7,0.00
2013-12-28,65.0,45.1,35.0,-99.9,-99.9,-99.9,0,0,100,0.00,40.00,3,2,6,0.00
2013-12-29,57.0,48.2,35.0,-99.9,-99.9,-99.9,0,0,100,0.00,40.00,4,4,6,0.00
2013-12-30,64.0,44.6,29.0,-99.9,-99.9,-99.9,0,0,100,0.00,40.00,4,4,6,0.00
2013-12-31,60.0,41.1,34.0,-99.9,-99.9,-99.9,0,0,100,0.00,40.00,4,2,6,0.00
2014-1-1,62.0,52.7,29.0,-99.9,-99.9,-99.9,0,0,100,0.00,40.00,1,1,2,0.00
2014-1-2,62.0,50.1,35.0,-99.9,-99.9,-99.9,0,0,100,0.00,40.00,2,2,2,0.00